createdAt,value
2023-04-17T00:01:14.000Z,12.4
2023-04-17T00:02:30.000Z,12
2023-04-17T00:03:46.000Z,12.1
2023-04-17T00:05:02.000Z,11.2
2023-04-17T00:06:17.000Z,12.6
2023-04-17T00:07:34.000Z,13
2023-04-17T00:08:50.000Z,12.2
2023-04-17T00:10:06.000Z,12.7
2023-04-17T00:11:22.000Z,12.7
2023-04-17T00:12:38.000Z,12.3
2023-04-17T00:13:54.000Z,11.9
2023-04-17T00:15:10.000Z,12.1
2023-04-17T00:16:25.000Z,13
2023-04-17T00:17:41.000Z,13.8
2023-04-17T00:18:57.000Z,12.7
2023-04-17T00:20:12.000Z,12.5
2023-04-17T00:21:27.000Z,13.1
2023-04-17T00:22:43.000Z,13.1
2023-04-17T00:23:59.000Z,13.4
2023-04-17T00:25:15.000Z,13.1
2023-04-17T00:26:32.000Z,13.5
2023-04-17T00:27:48.000Z,13.4
2023-04-17T00:29:04.000Z,14.4
2023-04-17T00:30:20.000Z,13.6
2023-04-17T00:31:36.000Z,13.5
2023-04-17T00:32:52.000Z,13
2023-04-17T00:34:08.000Z,12.8
2023-04-17T00:35:25.000Z,13.9
2023-04-17T00:36:41.000Z,12.9
2023-04-17T00:37:56.000Z,12.6
2023-04-17T00:39:12.000Z,12.5
2023-04-17T00:40:28.000Z,11.9
2023-04-17T00:41:44.000Z,11.9
2023-04-17T00:43:00.000Z,12.9
2023-04-17T00:44:16.000Z,11.8
2023-04-17T00:45:33.000Z,11.7
2023-04-17T00:46:48.000Z,11.8
2023-04-17T00:48:03.000Z,12.1
2023-04-17T00:49:18.000Z,11.1
2023-04-17T00:50:33.000Z,12
2023-04-17T00:51:49.000Z,11.3
2023-04-17T00:53:05.000Z,12.5
2023-04-17T00:54:22.000Z,10.9
2023-04-17T00:55:38.000Z,11.2
2023-04-17T00:56:54.000Z,10.5
2023-04-17T00:58:10.000Z,11.8
2023-04-17T00:59:26.000Z,11.6
2023-04-17T01:00:42.000Z,11
2023-04-17T01:01:58.000Z,11.3
2023-04-17T01:03:15.000Z,10.6
2023-04-17T01:04:31.000Z,11
2023-04-17T01:05:47.000Z,10.7
2023-04-17T01:07:02.000Z,10.9
2023-04-17T01:08:18.000Z,11
2023-04-17T01:09:34.000Z,12.2
2023-04-17T01:10:50.000Z,10.9
2023-04-17T01:12:06.000Z,11.3
2023-04-17T01:13:23.000Z,11.4
2023-04-17T01:14:39.000Z,11.9
2023-04-17T01:15:54.000Z,11.8
2023-04-17T01:17:09.000Z,11.9
2023-04-17T01:18:25.000Z,12.4
2023-04-17T01:19:40.000Z,11.6
2023-04-17T01:20:55.000Z,11.1
2023-04-17T01:23:28.000Z,9.6
2023-04-17T01:24:44.000Z,10
2023-04-17T01:27:16.000Z,9.8
2023-04-17T01:28:32.000Z,9.4
2023-04-17T01:29:48.000Z,9.3
2023-04-17T01:31:05.000Z,9.4
2023-04-17T01:32:21.000Z,8.5
2023-04-17T01:33:37.000Z,8.9
2023-04-17T01:34:53.000Z,8.7
2023-04-17T01:36:08.000Z,9.5
2023-04-17T01:37:23.000Z,9
2023-04-17T01:38:39.000Z,9.1
2023-04-17T01:39:56.000Z,8.3
2023-04-17T01:41:12.000Z,9
2023-04-17T01:42:28.000Z,8.6
2023-04-17T01:43:44.000Z,8.8
2023-04-17T01:45:00.000Z,9.2
2023-04-17T01:46:16.000Z,8.5
2023-04-17T01:47:32.000Z,9.3
2023-04-17T01:48:48.000Z,8.4
2023-04-17T01:50:04.000Z,8.6
2023-04-17T01:51:19.000Z,8.1
2023-04-17T01:52:35.000Z,7.8
2023-04-17T01:53:51.000Z,8.4
2023-04-17T01:55:07.000Z,8.7
2023-04-17T01:56:23.000Z,8.8
2023-04-17T01:57:39.000Z,8.6
2023-04-17T01:58:56.000Z,8.5
2023-04-17T02:00:12.000Z,8.2
2023-04-17T02:01:28.000Z,8.7
2023-04-17T02:02:44.000Z,8.3
2023-04-17T02:04:00.000Z,8.5
2023-04-17T02:05:16.000Z,9.3
2023-04-17T02:06:32.000Z,8.2
2023-04-17T02:07:47.000Z,8.9
2023-04-17T02:09:04.000Z,8.2
2023-04-17T02:10:20.000Z,7.9
2023-04-17T02:11:36.000Z,8.8
2023-04-17T02:12:52.000Z,8.8
2023-04-17T02:14:08.000Z,8
2023-04-17T02:15:24.000Z,8
2023-04-17T02:16:39.000Z,8.6
2023-04-17T02:17:55.000Z,8.1
2023-04-17T02:19:11.000Z,8.2
2023-04-17T02:20:26.000Z,8.1
2023-04-17T02:21:41.000Z,8.3
2023-04-17T02:22:57.000Z,8.7
2023-04-17T02:24:13.000Z,8.6
2023-04-17T02:25:29.000Z,8.8
2023-04-17T02:26:46.000Z,8.7
2023-04-17T02:28:02.000Z,8.5
2023-04-17T02:29:18.000Z,8.6
2023-04-17T02:30:34.000Z,8.6
2023-04-17T02:31:50.000Z,9.3
2023-04-17T02:33:06.000Z,9.6
2023-04-17T02:34:22.000Z,9.2
2023-04-17T02:35:38.000Z,9.4
2023-04-17T02:36:55.000Z,9.9
2023-04-17T02:38:10.000Z,9.2
2023-04-17T02:39:26.000Z,8.9
2023-04-17T02:40:42.000Z,9.3
2023-04-17T02:41:58.000Z,9.5
2023-04-17T02:43:14.000Z,9.2
2023-04-17T02:44:30.000Z,9.4
2023-04-17T02:45:47.000Z,9
2023-04-17T02:47:03.000Z,8.5
2023-04-17T02:48:18.000Z,9.5
2023-04-17T02:49:33.000Z,8.9
2023-04-17T02:50:49.000Z,9
2023-04-17T02:52:04.000Z,8.3
2023-04-17T02:53:19.000Z,9.3
2023-04-17T02:54:36.000Z,9.7
2023-04-17T02:55:52.000Z,10.1
2023-04-17T02:57:08.000Z,9.1
2023-04-17T02:58:24.000Z,9.4
2023-04-17T02:59:40.000Z,9.8
2023-04-17T03:00:56.000Z,10.1
2023-04-17T03:02:12.000Z,10.1
2023-04-17T03:03:28.000Z,11.2
2023-04-17T03:04:45.000Z,11.2
2023-04-17T03:06:01.000Z,10.7
2023-04-17T03:07:17.000Z,11.2
2023-04-17T03:08:33.000Z,10.4
2023-04-17T03:09:48.000Z,10.7
2023-04-17T03:11:04.000Z,11.4
2023-04-17T03:12:20.000Z,11.5
2023-04-17T03:13:37.000Z,11.6
2023-04-17T03:14:53.000Z,12.3
2023-04-17T03:16:09.000Z,11.3
2023-04-17T03:17:25.000Z,12.9
2023-04-17T03:18:40.000Z,13
2023-04-17T03:19:55.000Z,13
2023-04-17T03:21:11.000Z,12.9
2023-04-17T03:22:27.000Z,12.9
2023-04-17T03:23:42.000Z,14.1
2023-04-17T03:24:58.000Z,13.1
2023-04-17T03:26:14.000Z,11.6
2023-04-17T03:27:30.000Z,11.7
2023-04-17T03:28:46.000Z,12.3
2023-04-17T03:30:02.000Z,12.2
2023-04-17T03:31:18.000Z,11.5
2023-04-17T03:32:35.000Z,11.6
2023-04-17T03:33:51.000Z,11.8
2023-04-17T03:35:07.000Z,11.6
2023-04-17T03:36:23.000Z,10.6
2023-04-17T03:37:39.000Z,11.7
2023-04-17T03:40:11.000Z,10.2
2023-04-17T03:41:27.000Z,10.2
2023-04-17T03:42:43.000Z,9.7
2023-04-17T03:43:59.000Z,9.8
2023-04-17T03:45:15.000Z,10.1
2023-04-17T03:46:31.000Z,10.1
2023-04-17T03:47:47.000Z,10.8
2023-04-17T03:49:03.000Z,10.1
2023-04-17T03:50:19.000Z,10.1
2023-04-17T03:51:34.000Z,10.5
2023-04-17T03:52:49.000Z,10.7
2023-04-17T03:54:04.000Z,11.2
2023-04-17T03:55:20.000Z,10.5
2023-04-17T03:56:36.000Z,10.3
2023-04-17T03:57:52.000Z,10.4
2023-04-17T03:59:09.000Z,10.3
2023-04-17T04:00:25.000Z,10.8
2023-04-17T04:01:41.000Z,10.3
2023-04-17T04:02:57.000Z,10.2
2023-04-17T04:04:13.000Z,9.9
2023-04-17T04:05:29.000Z,10.2
2023-04-17T04:06:45.000Z,10.3
2023-04-17T04:08:01.000Z,10.9
2023-04-17T04:09:18.000Z,11.3
2023-04-17T04:10:33.000Z,11.2
2023-04-17T04:11:49.000Z,10
2023-04-17T04:13:05.000Z,10.6
2023-04-17T04:14:21.000Z,11.2
2023-04-17T04:15:37.000Z,10.5
2023-04-17T04:16:53.000Z,10.8
2023-04-17T04:18:10.000Z,9.4
2023-04-17T04:19:25.000Z,9.4
2023-04-17T04:20:40.000Z,9.9
2023-04-17T04:21:56.000Z,11.4
2023-04-17T04:23:12.000Z,11.3
2023-04-17T04:24:28.000Z,11.1
2023-04-17T04:25:44.000Z,10.6
2023-04-17T04:27:00.000Z,10.9
2023-04-17T04:28:17.000Z,10.6
2023-04-17T04:29:33.000Z,12.9
2023-04-17T04:30:49.000Z,11.5
2023-04-17T04:32:05.000Z,15.7
2023-04-17T04:33:21.000Z,11.8
2023-04-17T04:35:52.000Z,12.4
2023-04-17T04:37:08.000Z,11.8
2023-04-17T04:38:24.000Z,13.4
2023-04-17T04:39:40.000Z,12.6
2023-04-17T04:40:56.000Z,13.8
2023-04-17T04:42:12.000Z,14.5
2023-04-17T04:43:28.000Z,14.9
2023-04-17T04:44:44.000Z,21.1
2023-04-17T04:46:01.000Z,16.5
2023-04-17T04:47:16.000Z,14.2
2023-04-17T04:48:31.000Z,13.9
2023-04-17T04:49:46.000Z,12.4
2023-04-17T04:51:01.000Z,12.2
2023-04-17T04:52:17.000Z,12.5
2023-04-17T04:53:33.000Z,12.1
2023-04-17T04:54:50.000Z,12.4
2023-04-17T04:56:06.000Z,12.3
2023-04-17T04:57:22.000Z,13.1
2023-04-17T04:58:38.000Z,12.7
2023-04-17T04:59:54.000Z,13.6
2023-04-17T05:01:10.000Z,13.1
2023-04-17T05:02:26.000Z,12.5
2023-04-17T05:03:42.000Z,13.4
2023-04-17T05:04:59.000Z,13.4
2023-04-17T05:06:15.000Z,14.4
2023-04-17T05:07:30.000Z,13.7
2023-04-17T05:08:46.000Z,14
2023-04-17T05:10:02.000Z,14.9
2023-04-17T05:11:18.000Z,14.1
2023-04-17T05:12:34.000Z,14.3
2023-04-17T05:13:51.000Z,14.7
2023-04-17T05:15:07.000Z,13.3
2023-04-17T05:16:22.000Z,14
2023-04-17T05:18:53.000Z,15
2023-04-17T05:20:08.000Z,14.6
2023-04-17T05:21:23.000Z,14.6
2023-04-17T05:22:40.000Z,14.6
2023-04-17T05:23:56.000Z,17.6
2023-04-17T05:25:12.000Z,23.3
2023-04-17T05:26:28.000Z,19.2
2023-04-17T05:27:44.000Z,20
2023-04-17T05:29:00.000Z,21.5
2023-04-17T05:30:16.000Z,21.4
2023-04-17T05:31:32.000Z,20.7
2023-04-17T05:32:49.000Z,22.3
2023-04-17T05:34:05.000Z,22
2023-04-17T05:35:21.000Z,19.6
2023-04-17T05:36:37.000Z,20
2023-04-17T05:37:52.000Z,20.3
2023-04-17T05:39:08.000Z,19.9
2023-04-17T05:40:24.000Z,19.3
2023-04-17T05:41:41.000Z,19.4
2023-04-17T05:42:57.000Z,17.5
2023-04-17T05:44:13.000Z,19.2
2023-04-17T05:45:29.000Z,18.1
2023-04-17T05:46:44.000Z,18.4
2023-04-17T05:47:59.000Z,18.3
2023-04-17T05:49:15.000Z,19.2
2023-04-17T05:50:31.000Z,18.3
2023-04-17T05:51:46.000Z,20.8
2023-04-17T05:53:02.000Z,19.6
2023-04-17T05:54:18.000Z,20.1
2023-04-17T05:55:34.000Z,21.3
2023-04-17T05:56:50.000Z,19.6
2023-04-17T05:58:06.000Z,20.8
2023-04-17T05:59:22.000Z,19.3
2023-04-17T06:00:39.000Z,19.5
2023-04-17T06:01:55.000Z,20.1
2023-04-17T06:03:11.000Z,20.4
2023-04-17T06:04:27.000Z,18.4
2023-04-17T06:05:43.000Z,19.2
2023-04-17T06:06:59.000Z,19.2
2023-04-17T06:08:14.000Z,19.5
2023-04-17T06:10:47.000Z,18.8
2023-04-17T06:12:03.000Z,18.4
2023-04-17T06:13:19.000Z,18
2023-04-17T06:14:35.000Z,18.1
2023-04-17T06:15:51.000Z,19.1
2023-04-17T06:17:07.000Z,18.2
2023-04-17T06:18:23.000Z,17.7
2023-04-17T06:19:39.000Z,17.2
2023-04-17T06:20:54.000Z,17.4
2023-04-17T06:22:10.000Z,15.9
2023-04-17T06:23:25.000Z,16.1
2023-04-17T06:24:40.000Z,16.3
2023-04-17T06:25:56.000Z,15.4
2023-04-17T06:27:12.000Z,15.3
2023-04-17T06:28:29.000Z,15.1
2023-04-17T06:29:45.000Z,15.8
2023-04-17T06:31:01.000Z,15.6
2023-04-17T06:32:17.000Z,16.6
2023-04-17T06:33:33.000Z,15.2
2023-04-17T06:34:49.000Z,17.5
2023-04-17T06:36:05.000Z,17.1
2023-04-17T06:37:22.000Z,15.9
2023-04-17T06:38:38.000Z,15
2023-04-17T06:39:54.000Z,15.4
2023-04-17T06:41:09.000Z,15
2023-04-17T06:42:25.000Z,15.4
2023-04-17T06:43:41.000Z,16.1
2023-04-17T06:44:57.000Z,15.2
2023-04-17T06:46:13.000Z,15.2
2023-04-17T06:47:30.000Z,15.2
2023-04-17T06:48:46.000Z,15.1
2023-04-17T06:50:01.000Z,16.5
2023-04-17T06:51:16.000Z,15.6
2023-04-17T06:52:32.000Z,15.5
2023-04-17T06:53:48.000Z,15.5
2023-04-17T06:55:04.000Z,15.5
2023-04-17T06:56:21.000Z,15.6
2023-04-17T06:57:37.000Z,15.9
2023-04-17T06:58:53.000Z,15.8
2023-04-17T07:00:09.000Z,14.8
2023-04-17T07:01:25.000Z,14
2023-04-17T07:02:41.000Z,14.6
2023-04-17T07:03:57.000Z,14.6
2023-04-17T07:05:13.000Z,14.1
2023-04-17T07:06:30.000Z,13.5
2023-04-17T07:07:45.000Z,11
2023-04-17T07:09:01.000Z,12.6
2023-04-17T07:10:17.000Z,13.5
2023-04-17T07:11:33.000Z,13.6
2023-04-17T07:12:49.000Z,13.3
2023-04-17T07:14:05.000Z,14.3
2023-04-17T07:15:22.000Z,14.8
2023-04-17T07:16:37.000Z,14.6
2023-04-17T07:17:53.000Z,12.6
2023-04-17T07:19:08.000Z,12.5
2023-04-17T07:20:23.000Z,13.7
2023-04-17T07:21:39.000Z,12.6
2023-04-17T07:22:55.000Z,11.7
2023-04-17T07:24:11.000Z,12.8
2023-04-17T07:25:26.000Z,11.5
2023-04-17T07:26:42.000Z,12.4
2023-04-17T07:27:58.000Z,12.3
2023-04-17T07:29:14.000Z,12.1
2023-04-17T07:30:30.000Z,12.7
2023-04-17T07:31:46.000Z,11.5
2023-04-17T07:33:03.000Z,10.9
2023-04-17T07:34:19.000Z,11.6
2023-04-17T07:35:35.000Z,11
2023-04-17T07:36:51.000Z,10.9
2023-04-17T07:38:07.000Z,10.4
2023-04-17T07:39:23.000Z,11.6
2023-04-17T07:40:39.000Z,11
2023-04-17T07:41:54.000Z,10.5
2023-04-17T07:43:11.000Z,10.6
2023-04-17T07:44:27.000Z,11.1
2023-04-17T07:45:43.000Z,10.5
2023-04-17T07:46:59.000Z,9.3
2023-04-17T07:48:15.000Z,10.5
2023-04-17T07:49:31.000Z,10.2
2023-04-17T07:50:46.000Z,10.6
2023-04-17T07:52:03.000Z,10.6
2023-04-17T07:53:18.000Z,10.8
2023-04-17T07:54:33.000Z,10.5
2023-04-17T07:55:48.000Z,10.4
2023-04-17T07:57:04.000Z,9.7
2023-04-17T07:58:20.000Z,10.8
2023-04-17T07:59:36.000Z,10.4
2023-04-17T08:00:53.000Z,9.7
2023-04-17T08:02:09.000Z,9.7
2023-04-17T08:03:25.000Z,9.8
2023-04-17T08:04:41.000Z,10.5
2023-04-17T08:05:57.000Z,10.3
2023-04-17T08:07:13.000Z,11.2
2023-04-17T08:08:29.000Z,10.4
2023-04-17T08:09:45.000Z,10.9
2023-04-17T08:11:02.000Z,9.3
2023-04-17T08:12:17.000Z,9.1
2023-04-17T08:13:33.000Z,8.9
2023-04-17T08:14:49.000Z,8.9
2023-04-17T08:16:05.000Z,9.5
2023-04-17T08:17:21.000Z,9.6
2023-04-17T08:18:37.000Z,9.7
2023-04-17T08:19:54.000Z,9.4
2023-04-17T08:21:09.000Z,9.8
2023-04-17T08:23:40.000Z,8.5
2023-04-17T08:24:56.000Z,8.7
2023-04-17T08:26:11.000Z,9.4
2023-04-17T08:27:26.000Z,9.1
2023-04-17T08:28:43.000Z,8.5
2023-04-17T08:29:59.000Z,9.2
2023-04-17T08:31:15.000Z,8.4
2023-04-17T08:32:31.000Z,8.9
2023-04-17T08:33:47.000Z,8.7
2023-04-17T08:36:19.000Z,9.4
2023-04-17T08:37:35.000Z,7.9
2023-04-17T08:38:52.000Z,8.2
2023-04-17T08:40:08.000Z,8.5
2023-04-17T08:41:24.000Z,7.9
2023-04-17T08:42:40.000Z,7.4
2023-04-17T08:43:55.000Z,7.6
2023-04-17T08:45:11.000Z,7.3
2023-04-17T08:46:27.000Z,6.7
2023-04-17T08:47:44.000Z,7.5
2023-04-17T08:50:16.000Z,7.2
2023-04-17T08:51:31.000Z,8
2023-04-17T08:52:46.000Z,8.1
2023-04-17T08:54:02.000Z,7.3
2023-04-17T08:55:18.000Z,7.4
2023-04-17T08:56:35.000Z,6.8
2023-04-17T08:57:51.000Z,7.2
2023-04-17T08:59:07.000Z,7.4
2023-04-17T09:00:23.000Z,8.4
2023-04-17T09:01:39.000Z,7.6
2023-04-17T09:02:55.000Z,7.4
2023-04-17T09:04:11.000Z,8.5
2023-04-17T09:05:26.000Z,8.3
2023-04-17T09:06:42.000Z,8.5
2023-04-17T09:07:58.000Z,8.8
2023-04-17T09:09:14.000Z,8.1
2023-04-17T09:10:30.000Z,8.3
2023-04-17T09:11:46.000Z,7.2
2023-04-17T09:13:02.000Z,8.5
2023-04-17T09:14:18.000Z,6.2
2023-04-17T09:15:35.000Z,7.4
2023-04-17T09:16:51.000Z,6.5
2023-04-17T09:18:07.000Z,7.1
2023-04-17T09:19:23.000Z,7.5
2023-04-17T09:20:39.000Z,7.9
2023-04-17T09:21:55.000Z,7.4
2023-04-17T09:23:10.000Z,7.9
2023-04-17T09:24:26.000Z,7.4
2023-04-17T09:25:43.000Z,7.2
2023-04-17T09:26:59.000Z,6.3
2023-04-17T09:28:15.000Z,6.9
2023-04-17T09:29:31.000Z,6.8
2023-04-17T09:30:47.000Z,5.4
2023-04-17T09:32:02.000Z,5.5
2023-04-17T09:33:17.000Z,5.6
2023-04-17T09:34:33.000Z,5.9
2023-04-17T09:35:48.000Z,5.9
2023-04-17T09:37:04.000Z,5.7
2023-04-17T09:38:20.000Z,4.8
2023-04-17T09:39:36.000Z,5.1
2023-04-17T09:40:52.000Z,5.1
2023-04-17T09:42:08.000Z,4.7
2023-04-17T09:43:25.000Z,4.4
2023-04-17T09:44:41.000Z,4.6
2023-04-17T09:45:57.000Z,4.8
2023-04-17T09:47:13.000Z,6.4
2023-04-17T09:48:29.000Z,6.6
2023-04-17T09:49:45.000Z,4.8
2023-04-17T09:51:01.000Z,5.4
2023-04-17T09:52:17.000Z,3.1
2023-04-17T09:53:33.000Z,3.6
2023-04-17T09:54:49.000Z,3.1
2023-04-17T09:56:05.000Z,3.3
2023-04-17T09:57:21.000Z,2.5
2023-04-17T09:58:37.000Z,2.6
2023-04-17T09:59:53.000Z,2.7
2023-04-17T10:01:08.000Z,2.8
2023-04-17T10:02:24.000Z,2.7
2023-04-17T10:03:39.000Z,2.8
2023-04-17T10:04:54.000Z,2.8
2023-04-17T10:06:10.000Z,3.4
2023-04-17T10:07:26.000Z,3.8
2023-04-17T10:08:42.000Z,3.6
2023-04-17T10:09:58.000Z,3.5
2023-04-17T10:11:15.000Z,3.7
2023-04-17T10:12:31.000Z,3.1
2023-04-17T10:13:47.000Z,3.7
2023-04-17T10:15:03.000Z,3
2023-04-17T10:16:19.000Z,3.2
2023-04-17T10:17:35.000Z,2.7
2023-04-17T10:18:51.000Z,3
2023-04-17T10:20:07.000Z,2.7
2023-04-17T10:21:23.000Z,2.7
2023-04-17T10:22:39.000Z,2.6
2023-04-17T10:23:55.000Z,2.4
2023-04-17T10:25:11.000Z,2.6
2023-04-17T10:26:27.000Z,2.3
2023-04-17T10:27:43.000Z,2.4
2023-04-17T10:28:59.000Z,1.9
2023-04-17T10:30:15.000Z,1.9
2023-04-17T10:31:30.000Z,2
2023-04-17T10:32:46.000Z,2
2023-04-17T10:34:01.000Z,2.4
2023-04-17T10:35:16.000Z,2.4
2023-04-17T10:36:32.000Z,2.4
2023-04-17T10:37:48.000Z,2.5
2023-04-17T10:39:05.000Z,2.3
2023-04-17T10:40:21.000Z,2.6
2023-04-17T10:41:37.000Z,2.7
2023-04-17T10:42:53.000Z,2.6
2023-04-17T10:44:09.000Z,2.4
2023-04-17T10:45:25.000Z,2.3
2023-04-17T10:46:41.000Z,2.6
2023-04-17T10:47:57.000Z,2.1
2023-04-17T10:49:14.000Z,1.9
2023-04-17T10:50:30.000Z,1.9
2023-04-17T10:51:45.000Z,2.9
2023-04-17T10:53:01.000Z,2.2
2023-04-17T10:54:17.000Z,2
2023-04-17T10:55:33.000Z,1.9
2023-04-17T10:56:49.000Z,1.9
2023-04-17T10:58:06.000Z,1.8
2023-04-17T10:59:22.000Z,1.7
2023-04-17T11:00:37.000Z,1.7
2023-04-17T11:01:52.000Z,1.5
2023-04-17T11:03:08.000Z,1.7
2023-04-17T11:04:24.000Z,1.8
2023-04-17T11:05:39.000Z,1.9
2023-04-17T11:06:55.000Z,1.7
2023-04-17T11:08:11.000Z,2
2023-04-17T11:09:27.000Z,1.9
2023-04-17T11:10:43.000Z,1.9
2023-04-17T11:11:59.000Z,2
2023-04-17T11:13:15.000Z,2.1
2023-04-17T11:14:31.000Z,2.2
2023-04-17T11:15:48.000Z,2
2023-04-17T11:17:04.000Z,2.6
2023-04-17T11:18:20.000Z,2.4
2023-04-17T11:19:36.000Z,2.1
2023-04-17T11:20:52.000Z,2
2023-04-17T11:22:08.000Z,2.1
2023-04-17T11:23:23.000Z,1.8
2023-04-17T11:24:39.000Z,2.3
2023-04-17T11:25:56.000Z,2.2
2023-04-17T11:27:12.000Z,2.1
2023-04-17T11:28:28.000Z,2
2023-04-17T11:31:00.000Z,2.5
2023-04-17T11:32:16.000Z,3.8
2023-04-17T11:33:31.000Z,2.5
2023-04-17T11:34:47.000Z,2.4
2023-04-17T11:36:02.000Z,2.8
2023-04-17T11:37:17.000Z,5.1
2023-04-17T11:38:33.000Z,3.6
2023-04-17T11:39:49.000Z,7
2023-04-17T11:41:05.000Z,4
2023-04-17T11:42:21.000Z,4.4
2023-04-17T11:43:38.000Z,2.5
2023-04-17T11:44:54.000Z,1.9
2023-04-17T11:46:10.000Z,1.7
2023-04-17T11:47:26.000Z,1.3
2023-04-17T11:48:42.000Z,1.7
2023-04-17T11:49:58.000Z,1.8
2023-04-17T11:51:14.000Z,2.1
2023-04-17T11:52:30.000Z,1.9
2023-04-17T11:53:46.000Z,2
2023-04-17T11:55:02.000Z,2.1
2023-04-17T11:56:18.000Z,1.6
2023-04-17T11:57:34.000Z,1.7
2023-04-17T11:58:50.000Z,1.8
2023-04-17T12:00:06.000Z,1.6
2023-04-17T12:01:22.000Z,1.8
2023-04-17T12:02:38.000Z,1.6
2023-04-17T12:03:53.000Z,1.7
2023-04-17T12:05:08.000Z,2
2023-04-17T12:06:23.000Z,2
2023-04-17T12:07:39.000Z,2.5
2023-04-17T12:08:55.000Z,2
2023-04-17T12:10:11.000Z,2.4
2023-04-17T12:11:28.000Z,2.1
2023-04-17T12:12:44.000Z,2.3
2023-04-17T12:14:00.000Z,2.7
2023-04-17T12:15:16.000Z,1.8
2023-04-17T12:16:32.000Z,2.1
2023-04-17T12:17:48.000Z,2.6
2023-04-17T12:19:04.000Z,2.9
2023-04-17T12:20:20.000Z,2.5
2023-04-17T12:21:37.000Z,2.7
2023-04-17T12:22:52.000Z,2.2
2023-04-17T12:24:08.000Z,2.4
2023-04-17T12:25:24.000Z,1.8
2023-04-17T12:26:40.000Z,2.2
2023-04-17T12:27:56.000Z,2.2
2023-04-17T12:29:12.000Z,2.6
2023-04-17T12:30:29.000Z,2.3
2023-04-17T12:31:44.000Z,1.9
2023-04-17T12:32:59.000Z,2.5
2023-04-17T12:34:15.000Z,2.2
2023-04-17T12:35:30.000Z,2
2023-04-17T12:36:45.000Z,2.3
2023-04-17T12:38:01.000Z,2.3
2023-04-17T12:39:18.000Z,2.2
2023-04-17T12:40:34.000Z,2.3
2023-04-17T12:41:50.000Z,2.2
2023-04-17T12:43:06.000Z,3
2023-04-17T12:44:22.000Z,2.8
2023-04-17T12:45:38.000Z,2.7
2023-04-17T12:46:54.000Z,3.1
2023-04-17T12:48:10.000Z,3.7
2023-04-17T12:49:27.000Z,3.6
2023-04-17T12:50:43.000Z,2.9
2023-04-17T12:51:59.000Z,3.3
2023-04-17T12:53:14.000Z,3.7
2023-04-17T12:54:30.000Z,3.6
2023-04-17T12:55:46.000Z,3.7
2023-04-17T12:57:02.000Z,3.9
2023-04-17T12:58:19.000Z,3.8
2023-04-17T12:59:35.000Z,4.4
2023-04-17T13:00:51.000Z,4.1
2023-04-17T13:02:06.000Z,3.8
2023-04-17T13:03:21.000Z,3.7
2023-04-17T13:04:37.000Z,4.5
2023-04-17T13:05:52.000Z,4.4
2023-04-17T13:07:08.000Z,3.8
2023-04-17T13:08:24.000Z,3.8
2023-04-17T13:09:40.000Z,2.8
2023-04-17T13:10:56.000Z,3
2023-04-17T13:12:12.000Z,1.9
2023-04-17T13:13:28.000Z,2.1
2023-04-17T13:14:44.000Z,1.7
2023-04-17T13:16:00.000Z,1.8
2023-04-17T13:17:17.000Z,1.6
2023-04-17T13:18:33.000Z,1.3
2023-04-17T13:19:49.000Z,1.4
2023-04-17T13:21:05.000Z,1.3
2023-04-17T13:22:21.000Z,1.4
2023-04-17T13:23:36.000Z,1.7
2023-04-17T13:24:52.000Z,1.7
2023-04-17T13:26:09.000Z,1.8
2023-04-17T13:27:25.000Z,2.4
2023-04-17T13:28:41.000Z,2.4
2023-04-17T13:29:57.000Z,2.7
2023-04-17T13:31:13.000Z,2.5
2023-04-17T13:33:45.000Z,2.6
2023-04-17T13:35:00.000Z,2.9
2023-04-17T13:36:16.000Z,2.5
2023-04-17T13:37:31.000Z,2.8
2023-04-17T13:38:46.000Z,2.8
2023-04-17T13:40:02.000Z,3
2023-04-17T13:41:18.000Z,3.2
2023-04-17T13:42:34.000Z,2.7
2023-04-17T13:43:50.000Z,2.4
2023-04-17T13:45:07.000Z,2.8
2023-04-17T13:47:39.000Z,2.7
2023-04-17T13:48:55.000Z,2.9
2023-04-17T13:50:11.000Z,2.6
2023-04-17T13:51:27.000Z,3
2023-04-17T13:52:43.000Z,2.7
2023-04-17T13:54:00.000Z,3
2023-04-17T13:55:15.000Z,2.7
2023-04-17T13:56:31.000Z,2.8
2023-04-17T13:57:47.000Z,2.9
2023-04-17T13:59:03.000Z,3.4
2023-04-17T14:00:19.000Z,3
2023-04-17T14:01:35.000Z,2.7
2023-04-17T14:02:51.000Z,2.7
2023-04-17T14:04:08.000Z,2.8
2023-04-17T14:05:23.000Z,2.6
2023-04-17T14:06:38.000Z,2.9
2023-04-17T14:07:53.000Z,2.2
2023-04-17T14:09:08.000Z,2.1
2023-04-17T14:10:24.000Z,2.1
2023-04-17T14:11:40.000Z,2
2023-04-17T14:12:57.000Z,2
2023-04-17T14:14:13.000Z,2.2
2023-04-17T14:15:29.000Z,2.8
2023-04-17T14:16:45.000Z,2.4
2023-04-17T14:18:01.000Z,2.6
2023-04-17T14:19:17.000Z,2.5
2023-04-17T14:20:33.000Z,2.8
2023-04-17T14:21:50.000Z,2.7
2023-04-17T14:23:06.000Z,2.6
2023-04-17T14:24:22.000Z,2.6
2023-04-17T14:25:37.000Z,2.8
2023-04-17T14:26:53.000Z,3
2023-04-17T14:28:09.000Z,3.5
2023-04-17T14:29:25.000Z,3.1
2023-04-17T14:30:41.000Z,3
2023-04-17T14:31:58.000Z,3.4
2023-04-17T14:33:14.000Z,2.9
2023-04-17T14:34:29.000Z,3.3
2023-04-17T14:35:44.000Z,3.4
2023-04-17T14:36:59.000Z,2.9
2023-04-17T14:38:14.000Z,3.2
2023-04-17T14:39:30.000Z,3.1
2023-04-17T14:40:47.000Z,3.2
2023-04-17T14:42:03.000Z,2.9
2023-04-17T14:43:19.000Z,3.4
2023-04-17T14:44:35.000Z,3.4
2023-04-17T14:45:51.000Z,3.1
2023-04-17T14:47:07.000Z,3.1
2023-04-17T14:48:23.000Z,3.4
2023-04-17T14:49:40.000Z,3.8
2023-04-17T14:50:56.000Z,3.6
2023-04-17T14:52:12.000Z,3.4
2023-04-17T14:53:28.000Z,3.2
2023-04-17T14:54:43.000Z,3.2
2023-04-17T14:55:59.000Z,3.4
2023-04-17T14:57:15.000Z,3.3
2023-04-17T14:58:31.000Z,3.2
2023-04-17T14:59:48.000Z,3.3
2023-04-17T15:01:04.000Z,3.3
2023-04-17T15:02:20.000Z,3.3
2023-04-17T15:03:35.000Z,3.2
2023-04-17T15:04:50.000Z,3.1
2023-04-17T15:06:06.000Z,3.3
2023-04-17T15:07:21.000Z,2.7
2023-04-17T15:08:37.000Z,3.2
2023-04-17T15:09:53.000Z,3.2
2023-04-17T15:11:09.000Z,3.3
2023-04-17T15:12:25.000Z,3.2
2023-04-17T15:13:41.000Z,3.5
2023-04-17T15:14:57.000Z,3.5
2023-04-17T15:16:13.000Z,3.3
2023-04-17T15:17:30.000Z,3.8
2023-04-17T15:18:46.000Z,3.2
2023-04-17T15:20:02.000Z,3.5
2023-04-17T15:21:18.000Z,3.6
2023-04-17T15:22:34.000Z,3.7
2023-04-17T15:23:50.000Z,3.7
2023-04-17T15:25:05.000Z,4.4
2023-04-17T15:26:21.000Z,4.5
2023-04-17T15:27:38.000Z,4.9
2023-04-17T15:28:54.000Z,5.2
2023-04-17T15:30:10.000Z,5.1
2023-04-17T15:31:26.000Z,5.5
2023-04-17T15:32:42.000Z,5.4
2023-04-17T15:33:57.000Z,5.2
2023-04-17T15:35:12.000Z,5.6
2023-04-17T15:36:29.000Z,5.6
2023-04-17T15:37:44.000Z,5.4
2023-04-17T15:38:59.000Z,5.4
2023-04-17T15:40:15.000Z,4.8
2023-04-17T15:41:31.000Z,5.1
2023-04-17T15:42:47.000Z,4.8
2023-04-17T15:44:03.000Z,4.9
2023-04-17T15:45:20.000Z,4.2
2023-04-17T15:46:36.000Z,4.7
2023-04-17T15:47:52.000Z,4.6
2023-04-17T15:49:08.000Z,4.6
2023-04-17T15:50:24.000Z,4.6
2023-04-17T15:51:40.000Z,4.9
2023-04-17T15:52:56.000Z,4.5
2023-04-17T15:54:12.000Z,4
2023-04-17T15:55:28.000Z,3.5
2023-04-17T15:56:44.000Z,3
2023-04-17T15:58:00.000Z,3.4
2023-04-17T15:59:16.000Z,3.3
2023-04-17T16:00:32.000Z,2.9
2023-04-17T16:01:48.000Z,2.8
2023-04-17T16:03:04.000Z,3.3
2023-04-17T16:04:21.000Z,3.7
2023-04-17T16:05:37.000Z,3.3
2023-04-17T16:06:53.000Z,3.2
2023-04-17T16:08:09.000Z,2.8
2023-04-17T16:09:25.000Z,3.1
2023-04-17T16:10:41.000Z,4.6
2023-04-17T16:11:56.000Z,3.8
2023-04-17T16:13:12.000Z,3.9
2023-04-17T16:14:29.000Z,4.3
2023-04-17T16:15:45.000Z,4.2
2023-04-17T16:17:01.000Z,4.1
2023-04-17T16:18:17.000Z,4.1
2023-04-17T16:19:33.000Z,4.3
2023-04-17T16:20:49.000Z,4.6
2023-04-17T16:22:05.000Z,4.3
2023-04-17T16:23:22.000Z,1.6
2023-04-17T16:24:38.000Z,1.4
2023-04-17T16:25:54.000Z,1.5
2023-04-17T16:27:10.000Z,1.7
2023-04-17T16:28:25.000Z,1.9
2023-04-17T16:29:41.000Z,1.8
2023-04-17T16:30:57.000Z,2
2023-04-17T16:32:13.000Z,2
2023-04-17T16:33:30.000Z,2.2
2023-04-17T16:34:46.000Z,2.2
2023-04-17T16:36:01.000Z,2.3
2023-04-17T16:37:16.000Z,2.3
2023-04-17T16:38:32.000Z,2.7
2023-04-17T16:39:47.000Z,2.2
2023-04-17T16:41:02.000Z,2.5
2023-04-17T16:42:19.000Z,1.9
2023-04-17T16:43:35.000Z,2
2023-04-17T16:44:51.000Z,2.1
2023-04-17T16:46:07.000Z,2.2
2023-04-17T16:47:23.000Z,2.1
2023-04-17T16:48:39.000Z,2.3
2023-04-17T16:49:55.000Z,2.6
2023-04-17T16:51:12.000Z,2.4
2023-04-17T16:52:28.000Z,2.3
2023-04-17T16:53:44.000Z,2
2023-04-17T16:55:00.000Z,2.5
2023-04-17T16:56:16.000Z,2.4
2023-04-17T16:57:31.000Z,2.6
2023-04-17T16:58:47.000Z,2.6
2023-04-17T17:00:03.000Z,3.1
2023-04-17T17:01:20.000Z,2.9
2023-04-17T17:02:36.000Z,2.5
2023-04-17T17:03:52.000Z,2.5
2023-04-17T17:05:08.000Z,3
2023-04-17T17:06:24.000Z,2.8
2023-04-17T17:07:40.000Z,2.4
2023-04-17T17:08:56.000Z,2.5
2023-04-17T17:10:13.000Z,2.5
2023-04-17T17:11:28.000Z,2.8
2023-04-17T17:12:44.000Z,3.1
2023-04-17T17:13:59.000Z,2.7
2023-04-17T17:15:14.000Z,4
2023-04-17T17:16:30.000Z,4.7
2023-04-17T17:17:46.000Z,4.7
2023-04-17T17:19:03.000Z,3.9
2023-04-17T17:20:19.000Z,4.1
2023-04-17T17:21:34.000Z,3.6
2023-04-17T17:22:50.000Z,3.5
2023-04-17T17:24:06.000Z,3.8
2023-04-17T17:25:22.000Z,4
2023-04-17T17:26:38.000Z,4.3
2023-04-17T17:27:54.000Z,3.9
2023-04-17T17:29:11.000Z,4.6
2023-04-17T17:30:27.000Z,4
2023-04-17T17:31:43.000Z,4.6
2023-04-17T17:32:59.000Z,4.6
2023-04-17T17:34:15.000Z,4.4